YRSY weather

Romsey Airport
Romsey, Victoria, Australia

Public forecast

Using degrees Celsius for public forecast. Weather courtesy of forecast.io.

Closest aviation weather report (METAR) to Romsey Airport

Closest report is Melbourne International Airport, 17.6 nm (32.6 km) SSE. Retrieved 2019/10/19 09:30 UTC (0 seconds ago):

YMML 190930Z 25007KT 9999 FEW040 09/04 Q1020 FM1000 MOD TURB BLW 5000FT TL1200

Closest aviation forecast (TAF) to Romsey Airport

Closest forecast is Melbourne International Airport, 17.6 nm (32.6 km) SSE. Retrieved 2019/10/19 06:50 UTC (3 hours ago):

TAF YMML 190534Z 1906/2012 26015G25KT 9999 -SHRA SCT040 FM190800 26014KT 9999 SCT045 FM191200 28010KT 9999 SCT045 FM191800 26010KT 9999 BKN040 FM200100 24012KT 9999 BKN045 INTER 1906/1907 5000 SHRA SCT025